Time;durP1;ratioP1;P1;durP2;ratioP2;P2;SDS_P1;SDS_P2;PMS_P1;PMS_P2;Temp;Humidity;BMP_temperature;BMP_pressure;BME280_temperature;BME280_humidity;BME280_pressure;Samples;Min_cycle;Max_cycle;Signal;HPM_P1;HPM_P2
2024/01/03 00:00:06;;;;;;;23.23;16.20;;;9.70;62.60;;;;;;4993081;28;20195;-86
2024/01/03 00:02:32;;;;;;;21.23;15.37;;;9.70;62.50;;;;;;4998586;28;20700;-85
2024/01/03 00:04:58;;;;;;;26.27;16.03;;;9.70;62.80;;;;;;4999746;28;20207;-85
2024/01/03 00:07:24;;;;;;;23.10;15.97;;;9.70;62.80;;;;;;5010150;28;20175;-84
2024/01/03 00:09:58;;;;;;;22.83;16.93;;;9.70;62.60;;;;;;4993208;28;20190;-86
2024/01/03 00:12:24;;;;;;;19.97;15.47;;;9.70;62.80;;;;;;4992778;28;20170;-85
2024/01/03 00:14:51;;;;;;;26.00;16.97;;;9.70;62.80;;;;;;4991378;28;20175;-86
2024/01/03 00:17:18;;;;;;;22.77;16.87;;;9.80;62.80;;;;;;4992647;28;20233;-85
2024/01/03 00:19:44;;;;;;;20.23;14.93;;;9.80;62.60;;;;;;5012365;28;20203;-86
2024/01/03 00:22:13;;;;;;;22.33;15.27;;;9.70;62.50;;;;;;5009083;28;20187;-86
2024/01/03 00:24:46;;;;;;;21.43;16.53;;;9.70;62.60;;;;;;5009538;28;20265;-85
2024/01/03 00:27:12;;;;;;;22.00;15.17;;;9.70;62.70;;;;;;4989834;28;20225;-86
2024/01/03 00:29:52;;;;;;;23.20;16.97;;;9.80;62.90;;;;;;4984077;28;20195;-86
2024/01/03 00:32:20;;;;;;;21.83;16.17;;;9.80;63.00;;;;;;5007653;28;20192;-86
2024/01/03 00:34:45;;;;;;;24.40;16.07;;;9.80;62.80;;;;;;5009668;28;20183;-86
2024/01/03 00:37:38;;;;;;;21.03;16.57;;;9.70;62.70;;;;;;4991901;28;20290;-86
2024/01/03 00:40:09;;;;;;;21.77;16.93;;;9.80;62.80;;;;;;4991300;28;20234;-86
2024/01/03 00:42:35;;;;;;;26.93;16.83;;;9.70;62.50;;;;;;4992604;28;20281;-86
2024/01/03 00:45:01;;;;;;;22.37;15.87;;;9.70;62.70;;;;;;4987091;28;20645;-86
2024/01/03 00:47:27;;;;;;;17.70;15.20;;;9.70;62.80;;;;;;4993400;28;20192;-86
2024/01/03 00:49:53;;;;;;;22.47;15.43;;;9.80;62.70;;;;;;5013332;28;20236;-86
2024/01/03 00:52:20;;;;;;;23.70;17.27;;;9.70;62.70;;;;;;5007577;28;20539;-85
2024/01/03 00:54:45;;;;;;;20.63;16.07;;;9.70;62.70;;;;;;5010472;28;20618;-86
2024/01/03 00:57:12;;;;;;;22.30;17.13;;;9.70;62.90;;;;;;4992811;28;20220;-86
2024/01/03 00:59:37;;;;;;;22.33;16.10;;;9.80;63.10;;;;;;5014940;28;20203;-86
2024/01/03 01:02:04;;;;;;;20.13;16.57;;;9.80;63.10;;;;;;5014157;28;20921;-86
2024/01/03 01:04:31;;;;;;;26.20;17.13;;;9.70;63.00;;;;;;5025656;28;20193;-86
2024/01/03 01:06:57;;;;;;;19.97;15.27;;;9.90;63.20;;;;;;5002530;28;20179;-86
2024/01/03 01:09:23;;;;;;;23.83;16.50;;;9.80;63.00;;;;;;4996759;28;20664;-86
2024/01/03 01:11:48;;;;;;;21.33;14.80;;;9.80;62.90;;;;;;5022620;28;20194;-85
2024/01/03 01:14:14;;;;;;;21.00;15.73;;;9.80;63.00;;;;;;4998346;28;20223;-85
2024/01/03 01:16:39;;;;;;;19.60;15.37;;;9.80;62.90;;;;;;4997341;28;20189;-86
2024/01/03 01:19:06;;;;;;;20.27;15.80;;;9.80;62.80;;;;;;4997235;28;20258;-85
2024/01/03 01:21:32;;;;;;;20.93;15.40;;;9.80;63.00;;;;;;4992971;28;20194;-85
2024/01/03 01:23:57;;;;;;;18.00;15.07;;;9.70;62.90;;;;;;4993249;28;20266;-86
2024/01/03 01:26:23;;;;;;;20.43;15.43;;;9.80;63.10;;;;;;4993261;28;20191;-85
2024/01/03 01:28:49;;;;;;;18.63;14.70;;;9.70;63.00;;;;;;5005105;28;20302;-84
2024/01/03 01:31:15;;;;;;;18.57;14.87;;;9.80;63.10;;;;;;4996886;28;20200;-85
2024/01/03 01:33:40;;;;;;;20.60;14.77;;;9.80;63.00;;;;;;5001411;28;20194;-86
2024/01/03 01:36:06;;;;;;;20.83;15.43;;;9.80;62.90;;;;;;5019182;28;20187;-86
2024/01/03 01:38:32;;;;;;;21.37;15.43;;;9.90;63.00;;;;;;4995028;28;20207;-86
2024/01/03 01:40:57;;;;;;;17.90;14.73;;;9.80;62.80;;;;;;5022305;28;20237;-86
2024/01/03 01:43:23;;;;;;;17.80;14.33;;;9.90;62.90;;;;;;5004031;28;20213;-86
2024/01/03 01:45:48;;;;;;;22.13;15.43;;;9.80;62.70;;;;;;5011196;28;20191;-85
2024/01/03 01:48:16;;;;;;;22.13;15.90;;;9.90;62.90;;;;;;4995262;28;20194;-85
2024/01/03 01:50:43;;;;;;;21.50;14.07;;;9.80;62.60;;;;;;4996338;28;20187;-86
2024/01/03 01:53:10;;;;;;;19.03;14.83;;;9.80;62.70;;;;;;5015277;28;20631;-85
2024/01/03 01:55:38;;;;;;;21.27;14.70;;;9.80;62.80;;;;;;5013387;28;20647;-85
2024/01/03 01:58:06;;;;;;;19.43;14.80;;;9.80;62.70;;;;;;4988631;28;20225;-86
2024/01/03 02:00:32;;;;;;;20.37;14.53;;;9.80;62.70;;;;;;4996536;28;20194;-86
2024/01/03 02:02:58;;;;;;;20.97;15.10;;;9.80;62.80;;;;;;5013636;28;20190;-85
2024/01/03 02:05:23;;;;;;;18.53;13.80;;;9.80;62.80;;;;;;5006908;28;20191;-85
2024/01/03 02:07:49;;;;;;;17.97;14.37;;;9.70;62.70;;;;;;4995591;28;20182;-85
2024/01/03 02:10:15;;;;;;;19.57;14.53;;;9.70;62.60;;;;;;4995548;28;20186;-86
2024/01/03 02:12:40;;;;;;;20.23;15.07;;;9.70;62.70;;;;;;5012306;28;20176;-87
2024/01/03 02:15:06;;;;;;;17.70;14.20;;;9.80;63.00;;;;;;5009690;28;20238;-85
2024/01/03 02:17:33;;;;;;;19.27;13.90;;;9.80;63.00;;;;;;5013358;28;20554;-85
2024/01/03 02:20:00;;;;;;;19.47;13.93;;;9.80;63.00;;;;;;4995420;28;20214;-85
2024/01/03 02:22:30;;;;;;;19.90;13.90;;;9.80;62.90;;;;;;5013339;28;20269;-85
2024/01/03 02:24:55;;;;;;;16.47;13.47;;;9.80;62.80;;;;;;4995808;28;20242;-85
2024/01/03 02:27:21;;;;;;;16.87;13.67;;;9.80;62.80;;;;;;4984464;28;20210;-85
2024/01/03 02:29:47;;;;;;;18.13;14.03;;;9.80;62.90;;;;;;4995092;28;20238;-84
2024/01/03 02:32:12;;;;;;;17.60;12.97;;;9.80;62.90;;;;;;4991466;28;20662;-85
2024/01/03 02:34:39;;;;;;;18.60;13.70;;;9.70;62.80;;;;;;4994604;28;20179;-84
2024/01/03 02:37:08;;;;;;;16.30;13.27;;;9.80;63.00;;;;;;5016738;28;20218;-85
2024/01/03 02:39:33;;;;;;;16.37;13.00;;;9.80;62.90;;;;;;4999421;28;20203;-85
2024/01/03 02:41:59;;;;;;;18.23;13.70;;;9.90;63.00;;;;;;4992029;28;20207;-85
2024/01/03 02:44:27;;;;;;;15.83;12.43;;;9.80;62.90;;;;;;4981140;28;20244;-85
2024/01/03 02:46:54;;;;;;;20.70;13.10;;;9.80;62.90;;;;;;5021902;28;20186;-84
2024/01/03 02:49:20;;;;;;;16.87;13.00;;;9.80;62.80;;;;;;4994971;28;20211;-85
2024/01/03 02:51:45;;;;;;;19.20;14.07;;;9.80;63.00;;;;;;4988274;28;20210;-85
2024/01/03 02:54:11;;;;;;;15.70;12.70;;;9.80;63.00;;;;;;5017292;28;20194;-85
2024/01/03 02:56:40;;;;;;;19.17;13.23;;;9.80;62.90;;;;;;5007892;28;20179;-85
2024/01/03 02:59:06;;;;;;;13.97;12.40;;;9.80;62.90;;;;;;4994726;28;20222;-85
2024/01/03 03:01:31;;;;;;;16.33;12.40;;;9.80;62.80;;;;;;4988971;28;20187;-85
2024/01/03 03:03:57;;;;;;;14.67;11.87;;;9.90;62.90;;;;;;4993471;28;20214;-85
2024/01/03 03:06:22;;;;;;;15.60;11.20;;;9.90;63.00;;;;;;5010612;28;20627;-85
2024/01/03 03:08:48;;;;;;;17.40;11.83;;;9.70;62.80;;;;;;4996603;28;20206;-85
2024/01/03 03:11:13;;;;;;;16.40;11.33;;;9.70;62.90;;;;;;4993882;28;20597;-85
2024/01/03 03:13:39;;;;;;;15.27;11.40;;;9.80;63.10;;;;;;4993647;28;20184;-85
2024/01/03 03:16:07;;;;;;;15.73;11.97;;;9.90;63.10;;;;;;4994248;28;20255;-85
2024/01/03 03:18:33;;;;;;;14.47;11.33;;;9.80;62.80;;;;;;4993420;28;20207;-85
2024/01/03 03:21:00;;;;;;;15.20;10.73;;;9.80;62.80;;;;;;4992934;28;20249;-85
2024/01/03 03:23:26;;;;;;;14.23;11.00;;;9.90;62.90;;;;;;4999319;28;20187;-85
2024/01/03 03:25:51;;;;;;;16.07;11.67;;;9.80;62.70;;;;;;5010874;28;20179;-85
2024/01/03 03:28:17;;;;;;;14.37;10.90;;;9.80;62.70;;;;;;4998891;28;20211;-85
2024/01/03 03:30:43;;;;;;;13.97;11.40;;;9.80;62.80;;;;;;5014789;28;20191;-85
2024/01/03 03:33:09;;;;;;;14.40;11.13;;;9.80;62.70;;;;;;4993282;28;20186;-85
2024/01/03 03:35:34;;;;;;;13.47;10.43;;;9.80;62.90;;;;;;4993059;28;20282;-85
2024/01/03 03:38:00;;;;;;;13.77;10.70;;;9.80;62.90;;;;;;5010824;28;20207;-85
2024/01/03 03:40:25;;;;;;;14.03;10.57;;;9.80;63.60;;;;;;5010609;28;20186;-85
2024/01/03 03:42:51;;;;;;;15.53;11.57;;;9.80;62.70;;;;;;5010007;28;20183;-85
2024/01/03 03:45:17;;;;;;;13.80;11.17;;;9.80;62.90;;;;;;4991977;28;20218;-85
2024/01/03 03:47:42;;;;;;;12.20;10.13;;;9.80;62.90;;;;;;4992906;28;20634;-86
2024/01/03 03:50:08;;;;;;;14.00;11.03;;;9.80;62.80;;;;;;5010204;28;20179;-85
2024/01/03 03:52:35;;;;;;;14.30;10.90;;;9.80;63.10;;;;;;4991595;28;20258;-85
2024/01/03 03:55:01;;;;;;;14.23;11.10;;;9.80;63.00;;;;;;4997933;28;20186;-84
2024/01/03 03:57:26;;;;;;;13.33;10.60;;;9.80;62.70;;;;;;4989783;28;20180;-85
2024/01/03 03:59:52;;;;;;;15.57;11.27;;;9.80;62.70;;;;;;4995223;28;20268;-85
2024/01/03 04:02:18;;;;;;;11.73;10.33;;;9.80;62.70;;;;;;5011195;28;20187;-85
2024/01/03 04:04:43;;;;;;;14.13;10.73;;;9.80;62.80;;;;;;4993793;28;20175;-85
2024/01/03 04:07:09;;;;;;;14.93;10.33;;;9.80;62.90;;;;;;4997529;28;20694;-85
2024/01/03 04:09:35;;;;;;;15.07;10.50;;;9.80;62.70;;;;;;5018175;28;20194;-85
2024/01/03 04:12:01;;;;;;;13.07;10.63;;;9.80;62.70;;;;;;5022162;28;20175;-85
2024/01/03 04:14:26;;;;;;;14.60;10.53;;;9.70;62.70;;;;;;4996069;28;20194;-85
2024/01/03 04:16:52;;;;;;;11.60;10.40;;;9.70;62.80;;;;;;4993972;28;20183;-85
2024/01/03 04:19:17;;;;;;;12.57;9.80;;;9.70;62.80;;;;;;5011202;28;20287;-85
2024/01/03 04:21:43;;;;;;;12.40;9.97;;;9.70;62.80;;;;;;5010704;28;20556;-85
2024/01/03 04:24:09;;;;;;;13.00;10.10;;;9.70;62.80;;;;;;5010535;28;20190;-85
2024/01/03 04:26:34;;;;;;;12.97;10.13;;;9.70;62.90;;;;;;5013060;28;20191;-85
2024/01/03 04:29:00;;;;;;;11.57;9.67;;;9.70;62.90;;;;;;5015485;28;20210;-84
2024/01/03 04:31:26;;;;;;;13.07;10.43;;;9.70;62.90;;;;;;4997125;28;20233;-85
2024/01/03 04:33:51;;;;;;;11.10;10.00;;;9.70;63.00;;;;;;5014902;28;20191;-84
2024/01/03 04:36:17;;;;;;;11.73;9.63;;;9.80;63.00;;;;;;5025105;28;20190;-86
2024/01/03 04:38:43;;;;;;;12.23;9.87;;;9.80;63.10;;;;;;4997206;28;20222;-85
2024/01/03 04:41:08;;;;;;;12.17;10.23;;;9.80;63.10;;;;;;5014195;28;20187;-84
2024/01/03 04:43:34;;;;;;;12.90;9.97;;;9.80;63.10;;;;;;5017656;28;20665;-85
2024/01/03 04:46:00;;;;;;;11.80;9.90;;;9.80;63.10;;;;;;5019285;28;20187;-85
2024/01/03 04:48:26;;;;;;;11.50;10.00;;;9.80;63.00;;;;;;4996814;28;20236;-85
2024/01/03 04:50:51;;;;;;;12.87;9.83;;;9.80;62.90;;;;;;5014382;28;20187;-85
2024/01/03 04:53:17;;;;;;;13.93;9.87;;;9.80;63.00;;;;;;5025574;28;20689;-85
2024/01/03 04:55:43;;;;;;;11.07;9.77;;;9.70;62.90;;;;;;4990277;28;20180;-85
2024/01/03 04:58:08;;;;;;;14.27;10.23;;;9.70;63.00;;;;;;5011092;28;20659;-85
2024/01/03 05:00:36;;;;;;;14.03;10.17;;;9.80;63.10;;;;;;4996763;28;20193;-84
2024/01/03 05:03:02;;;;;;;10.43;9.30;;;9.80;63.20;;;;;;4997979;28;20210;-85
2024/01/03 05:05:27;;;;;;;11.23;9.13;;;9.80;63.20;;;;;;5012214;28;20329;-85
2024/01/03 05:07:54;;;;;;;10.43;9.07;;;9.80;63.20;;;;;;5014418;28;20186;-85
2024/01/03 05:10:20;;;;;;;11.67;9.43;;;9.70;63.10;;;;;;4998134;28;20186;-85
2024/01/03 05:12:46;;;;;;;11.83;9.57;;;9.70;63.80;;;;;;4992567;28;20194;-85
2024/01/03 05:15:11;;;;;;;13.83;9.47;;;9.80;63.30;;;;;;5011864;28;20184;-85
2024/01/03 05:17:37;;;;;;;10.20;9.03;;;9.80;63.30;;;;;;4996009;28;20186;-85
2024/01/03 05:20:04;;;;;;;9.77;8.73;;;9.80;63.20;;;;;;5016345;28;20210;-85
2024/01/03 05:22:31;;;;;;;9.50;8.53;;;9.80;63.20;;;;;;4993816;28;20567;-85
2024/01/03 05:24:56;;;;;;;11.77;9.27;;;9.80;63.20;;;;;;4996268;28;20184;-85
2024/01/03 05:27:23;;;;;;;11.30;9.53;;;9.80;63.30;;;;;;4995640;28;20187;-85
2024/01/03 05:29:48;;;;;;;11.20;8.90;;;9.90;63.40;;;;;;4991947;28;20650;-84
2024/01/03 05:32:14;;;;;;;12.10;8.80;;;9.90;63.50;;;;;;4995403;28;20179;-83
2024/01/03 05:34:40;;;;;;;10.57;8.93;;;9.80;63.50;;;;;;5011505;28;20198;-84
2024/01/03 05:37:06;;;;;;;11.70;8.70;;;9.80;63.50;;;;;;5010823;28;20190;-85
2024/01/03 05:39:31;;;;;;;10.53;9.37;;;9.90;63.60;;;;;;4995142;28;20207;-85
2024/01/03 05:41:57;;;;;;;11.80;8.83;;;9.80;63.40;;;;;;4995077;28;20274;-84
2024/01/03 05:44:23;;;;;;;11.73;9.63;;;9.80;63.30;;;;;;5007282;28;20233;-88
2024/01/03 05:46:48;;;;;;;8.67;7.73;;;9.90;63.60;;;;;;5002725;28;20194;-89
2024/01/03 05:49:14;;;;;;;8.50;7.60;;;9.80;63.60;;;;;;5018097;28;20289;-87
2024/01/03 05:51:40;;;;;;;9.07;7.93;;;9.90;63.60;;;;;;5012186;28;20190;-85
2024/01/03 05:54:05;;;;;;;9.93;8.43;;;9.90;63.60;;;;;;5023478;28;20197;-85
2024/01/03 05:56:31;;;;;;;9.50;8.23;;;9.80;63.30;;;;;;4995921;28;20236;-88
2024/01/03 05:58:57;;;;;;;8.57;7.67;;;9.80;64.30;;;;;;5020832;28;20223;-85
2024/01/03 06:01:22;;;;;;;9.10;8.03;;;9.80;63.50;;;;;;4996455;28;20210;-86
2024/01/03 06:03:49;;;;;;;9.67;8.67;;;9.80;63.70;;;;;;5010199;28;20186;-86
2024/01/03 06:06:16;;;;;;;9.77;8.60;;;9.80;63.70;;;;;;4994205;28;20214;-86
2024/01/03 06:08:41;;;;;;;9.07;8.07;;;9.90;64.60;;;;;;4996290;28;20542;-88
2024/01/03 06:11:10;;;;;;;9.33;8.20;;;9.90;63.70;;;;;;4998333;28;20185;-88
2024/01/03 06:13:36;;;;;;;10.00;8.20;;;10.00;62.50;;;;;;5010897;28;20328;-85
2024/01/03 06:16:01;;;;;;;8.33;7.40;;;9.90;63.70;;;;;;5014615;28;20639;-86
2024/01/03 06:18:27;;;;;;;10.77;8.33;;;9.90;63.70;;;;;;5015089;28;20667;-85
2024/01/03 06:20:52;;;;;;;10.63;8.03;;;9.90;63.60;;;;;;5011220;28;20191;-86
2024/01/03 06:23:18;;;;;;;11.07;8.40;;;9.90;63.70;;;;;;4995091;28;20193;-87
2024/01/03 06:25:44;;;;;;;11.17;7.90;;;9.90;63.70;;;;;;4996912;28;20187;-86
2024/01/03 06:28:09;;;;;;;8.37;7.57;;;9.90;63.70;;;;;;5013706;28;20513;-85
2024/01/03 06:30:35;;;;;;;9.40;8.27;;;9.90;63.60;;;;;;4999413;28;20422;-89
2024/01/03 06:33:01;;;;;;;11.57;8.63;;;9.90;63.60;;;;;;4998053;28;20599;-86
2024/01/03 06:35:26;;;;;;;9.23;7.80;;;9.90;63.80;;;;;;4994398;28;20197;-86
2024/01/03 06:37:52;;;;;;;10.47;8.27;;;9.90;63.80;;;;;;5011791;28;20195;-85
2024/01/03 06:40:18;;;;;;;9.63;8.17;;;9.90;63.80;;;;;;4992826;28;20190;-87
2024/01/03 06:42:43;;;;;;;10.23;8.63;;;9.90;64.40;;;;;;4996812;28;20218;-87
2024/01/03 06:45:09;;;;;;;9.33;8.23;;;9.90;63.80;;;;;;5008495;28;20317;-87
2024/01/03 06:47:35;;;;;;;9.70;8.60;;;9.90;63.70;;;;;;4998937;28;20183;-84
2024/01/03 06:50:00;;;;;;;9.23;8.27;;;10.00;62.60;;;;;;5014616;28;20199;-84
2024/01/03 06:52:26;;;;;;;9.87;8.47;;;10.00;62.50;;;;;;4995777;28;20216;-85
2024/01/03 06:54:51;;;;;;;9.40;8.43;;;9.90;63.70;;;;;;4993924;28;20191;-85
2024/01/03 06:57:17;;;;;;;11.43;9.10;;;9.90;63.70;;;;;;5010963;28;20635;-85
2024/01/03 06:59:42;;;;;;;10.03;8.90;;;9.90;63.70;;;;;;5004459;28;20222;-85
2024/01/03 07:02:08;;;;;;;10.37;9.30;;;9.90;63.80;;;;;;4996551;28;20255;-84
2024/01/03 07:04:34;;;;;;;13.10;9.43;;;10.00;62.70;;;;;;5010743;28;20194;-85
2024/01/03 07:07:00;;;;;;;10.27;9.20;;;10.00;62.60;;;;;;4992739;28;20261;-85
2024/01/03 07:09:26;;;;;;;11.63;9.87;;;10.00;62.70;;;;;;5001484;28;20195;-85
2024/01/03 07:11:52;;;;;;;11.90;10.10;;;10.00;62.90;;;;;;5022521;28;20213;-85
2024/01/03 07:14:18;;;;;;;12.70;10.10;;;10.00;62.90;;;;;;4985697;28;20182;-84
2024/01/03 07:16:43;;;;;;;11.47;10.20;;;10.00;62.90;;;;;;4988841;28;20499;-85
2024/01/03 07:19:10;;;;;;;10.90;9.80;;;10.00;62.80;;;;;;4993433;28;20210;-85
2024/01/03 07:21:36;;;;;;;11.00;9.90;;;10.00;62.90;;;;;;4998276;28;20199;-85
2024/01/03 07:24:01;;;;;;;11.93;9.97;;;10.00;62.90;;;;;;4993367;28;20183;-85
2024/01/03 07:26:27;;;;;;;10.97;9.30;;;10.00;62.90;;;;;;5002144;28;20178;-85
2024/01/03 07:28:52;;;;;;;10.43;9.20;;;10.00;63.00;;;;;;4999257;28;20646;-85
2024/01/03 07:31:18;;;;;;;10.57;9.47;;;10.00;62.90;;;;;;4999249;28;20215;-84
2024/01/03 07:33:44;;;;;;;11.43;10.23;;;10.00;62.90;;;;;;5021301;28;20224;-85
2024/01/03 07:36:09;;;;;;;11.17;9.83;;;10.10;63.00;;;;;;5011155;28;20628;-85
2024/01/03 07:38:35;;;;;;;11.47;10.27;;;10.10;63.00;;;;;;4989340;28;20199;-84
2024/01/03 07:41:00;;;;;;;11.20;9.87;;;10.10;63.00;;;;;;4995067;28;20187;-84
2024/01/03 07:43:27;;;;;;;11.67;9.67;;;10.00;62.80;;;;;;4991458;28;20238;-84
2024/01/03 07:45:52;;;;;;;11.23;9.93;;;10.10;63.30;;;;;;5006348;28;20548;-85
2024/01/03 07:48:18;;;;;;;11.23;10.13;;;10.10;63.10;;;;;;4992666;28;20195;-84
2024/01/03 07:50:44;;;;;;;11.37;10.17;;;10.10;63.10;;;;;;4992695;28;20510;-85
2024/01/03 07:53:09;;;;;;;11.93;10.70;;;10.20;63.20;;;;;;4993656;28;20190;-85
2024/01/03 07:55:35;;;;;;;10.93;9.67;;;10.10;63.10;;;;;;5009377;28;20225;-84
2024/01/03 07:58:01;;;;;;;10.77;9.53;;;10.20;63.20;;;;;;5008961;28;20210;-85
2024/01/03 08:00:30;;;;;;;12.27;10.47;;;10.10;63.10;;;;;;4990790;28;20191;-85
2024/01/03 08:02:56;;;;;;;11.93;10.73;;;10.00;63.20;;;;;;5006318;28;20577;-85
2024/01/03 08:05:22;;;;;;;10.80;9.70;;;10.10;63.60;;;;;;4995242;28;20174;-84
2024/01/03 08:07:48;;;;;;;11.57;10.43;;;10.10;63.60;;;;;;4998508;28;20277;-85
2024/01/03 08:10:14;;;;;;;11.50;10.40;;;10.10;63.60;;;;;;5001406;28;20278;-84
2024/01/03 08:12:40;;;;;;;13.20;10.47;;;10.10;63.40;;;;;;5019244;28;20274;-85
2024/01/03 08:15:06;;;;;;;12.43;10.43;;;10.20;63.50;;;;;;5015482;28;20183;-85
2024/01/03 08:17:32;;;;;;;12.93;10.67;;;10.20;63.40;;;;;;4991647;28;20246;-85
2024/01/03 08:19:57;;;;;;;12.97;11.10;;;10.30;63.60;;;;;;4994834;28;20617;-85
2024/01/03 08:22:23;;;;;;;12.87;11.43;;;10.20;63.40;;;;;;5008631;28;20762;-85
2024/01/03 08:24:49;;;;;;;11.00;9.90;;;10.20;63.40;;;;;;5003371;28;20206;-85
2024/01/03 08:27:14;;;;;;;11.47;10.27;;;10.20;63.40;;;;;;5009345;28;20182;-85
2024/01/03 08:29:40;;;;;;;11.20;10.00;;;10.20;63.40;;;;;;5019214;28;20186;-85
2024/01/03 08:32:06;;;;;;;10.77;9.67;;;10.20;64.10;;;;;;5014610;28;20182;-85
2024/01/03 08:34:31;;;;;;;10.30;9.27;;;10.20;63.50;;;;;;5000104;28;20197;-85
2024/01/03 08:36:57;;;;;;;11.23;10.07;;;10.30;63.60;;;;;;4991959;28;20190;-85
2024/01/03 08:39:23;;;;;;;10.27;9.17;;;10.20;63.50;;;;;;4992291;28;20288;-85
2024/01/03 08:41:49;;;;;;;11.63;10.30;;;10.20;63.40;;;;;;4992057;28;20664;-84
2024/01/03 08:44:14;;;;;;;9.53;8.63;;;10.20;63.40;;;;;;5013951;28;20236;-85
2024/01/03 08:46:41;;;;;;;11.00;9.23;;;10.30;63.60;;;;;;4997651;28;20293;-85
2024/01/03 08:49:07;;;;;;;10.97;9.97;;;10.30;63.70;;;;;;4998773;28;20191;-85
2024/01/03 08:51:33;;;;;;;10.53;9.43;;;10.30;63.60;;;;;;5003287;28;20248;-85
2024/01/03 08:53:58;;;;;;;10.83;9.73;;;10.30;63.60;;;;;;4992885;28;20635;-85
2024/01/03 08:56:25;;;;;;;9.57;8.67;;;10.30;63.60;;;;;;4992304;28;20203;-84
2024/01/03 08:58:51;;;;;;;10.30;9.20;;;10.30;63.70;;;;;;5008497;28;20210;-85
2024/01/03 09:01:23;;;;;;;12.60;10.03;;;10.30;63.80;;;;;;5002852;28;20191;-85
2024/01/03 09:03:50;;;;;;;12.10;10.83;;;10.40;63.90;;;;;;5010482;28;20298;-84
2024/01/03 09:06:21;;;;;;;10.73;9.63;;;10.30;63.70;;;;;;5017523;28;20186;-84
2024/01/03 09:08:50;;;;;;;10.93;9.83;;;10.30;63.70;;;;;;4991156;28;20187;-85
2024/01/03 09:11:22;;;;;;;11.30;10.07;;;10.30;64.10;;;;;;5013477;28;20288;-84
2024/01/03 09:13:49;;;;;;;11.67;9.50;;;10.30;64.00;;;;;;5001648;28;20179;-84
2024/01/03 09:16:18;;;;;;;12.53;10.27;;;10.30;63.90;;;;;;4996146;28;20302;-85
2024/01/03 09:18:44;;;;;;;11.27;10.03;;;10.40;64.10;;;;;;4990241;28;20232;-84
2024/01/03 09:21:09;;;;;;;11.17;10.07;;;10.40;63.90;;;;;;4995688;28;20183;-84
2024/01/03 09:23:36;;;;;;;10.27;9.33;;;10.40;64.00;;;;;;4994743;28;20191;-85
2024/01/03 09:26:04;;;;;;;11.23;10.13;;;10.40;64.00;;;;;;4994608;28;20191;-85
2024/01/03 09:28:29;;;;;;;12.80;9.90;;;10.40;64.00;;;;;;4993694;28;20183;-85
2024/01/03 09:30:55;;;;;;;13.97;10.57;;;10.40;64.10;;;;;;5013341;28;20209;-85
2024/01/03 09:33:21;;;;;;;13.53;11.50;;;10.40;64.20;;;;;;5008791;28;20179;-84
2024/01/03 09:35:46;;;;;;;11.10;9.97;;;10.30;64.20;;;;;;5007837;28;20179;-85
2024/01/03 09:38:13;;;;;;;11.13;10.10;;;10.40;64.40;;;;;;4990955;28;20198;-85
2024/01/03 09:40:40;;;;;;;10.93;9.93;;;10.40;64.40;;;;;;4994691;28;20191;-85
2024/01/03 09:43:08;;;;;;;10.70;9.03;;;10.40;64.40;;;;;;5005621;28;20190;-84
2024/01/03 09:45:34;;;;;;;10.50;9.40;;;10.40;64.40;;;;;;5005459;28;20182;-85
2024/01/03 09:48:00;;;;;;;11.57;9.43;;;10.50;64.50;;;;;;4994432;28;20627;-84
2024/01/03 09:50:26;;;;;;;10.77;9.63;;;10.60;64.50;;;;;;4989141;28;20181;-84
2024/01/03 09:52:55;;;;;;;11.73;10.53;;;10.50;64.40;;;;;;4995269;28;20620;-85
2024/01/03 09:55:21;;;;;;;11.73;10.53;;;10.50;65.20;;;;;;5004849;28;20667;-84
2024/01/03 09:57:49;;;;;;;11.97;10.43;;;10.50;64.40;;;;;;4993444;28;20226;-84
2024/01/03 10:00:16;;;;;;;11.67;10.27;;;10.60;64.50;;;;;;5004936;28;20653;-85
2024/01/03 10:02:45;;;;;;;10.97;9.87;;;10.60;64.50;;;;;;5000955;28;20197;-84
2024/01/03 10:05:21;;;;;;;11.00;9.27;;;10.60;64.60;;;;;;5000598;28;20268;-85
2024/01/03 10:07:46;;;;;;;13.30;11.97;;;10.60;64.70;;;;;;5003055;28;20193;-85
2024/01/03 10:10:12;;;;;;;12.87;11.57;;;10.60;64.70;;;;;;4994982;28;20197;-85
2024/01/03 10:12:38;;;;;;;11.43;10.20;;;10.60;64.60;;;;;;5017960;28;20569;-85
2024/01/03 10:15:15;;;;;;;14.33;11.53;;;10.60;64.60;;;;;;4994819;28;20186;-85
2024/01/03 10:17:43;;;;;;;11.63;10.07;;;10.60;64.70;;;;;;4999073;28;20190;-85
2024/01/03 10:20:26;;;;;;;11.23;9.77;;;10.60;64.80;;;;;;5015641;28;20214;-85
2024/01/03 10:23:10;;;;;;;11.87;10.67;;;10.70;64.90;;;;;;5011115;28;20258;-85
2024/01/03 10:25:40;;;;;;;13.93;12.47;;;10.70;64.80;;;;;;4984651;28;20195;-85
2024/01/03 10:28:09;;;;;;;12.43;10.73;;;10.70;64.80;;;;;;4992950;28;20187;-85
2024/01/03 10:30:35;;;;;;;13.87;12.37;;;10.70;65.60;;;;;;5005351;28;20240;-84
2024/01/03 10:33:08;;;;;;;13.43;11.93;;;10.70;64.80;;;;;;5010267;28;20179;-85
2024/01/03 10:35:41;;;;;;;11.70;10.50;;;10.70;64.80;;;;;;4998032;28;20194;-85
2024/01/03 10:38:07;;;;;;;12.53;11.23;;;10.80;65.10;;;;;;5016370;28;20191;-85
2024/01/03 10:40:34;;;;;;;13.53;11.67;;;10.70;65.10;;;;;;5004620;28;20191;-85
2024/01/03 10:43:01;;;;;;;12.40;11.10;;;10.70;65.20;;;;;;4981900;28;20201;-84
2024/01/03 10:45:27;;;;;;;12.53;11.23;;;10.70;65.10;;;;;;4993134;28;20244;-85
2024/01/03 10:47:53;;;;;;;14.57;11.93;;;10.80;65.30;;;;;;4993495;28;20191;-84
2024/01/03 10:50:20;;;;;;;11.87;10.67;;;10.80;65.30;;;;;;5008672;28;20190;-84
2024/01/03 10:52:46;;;;;;;12.07;10.80;;;10.80;65.30;;;;;;4984053;28;20631;-84
2024/01/03 10:55:19;;;;;;;12.23;10.93;;;10.80;65.40;;;;;;5004613;28;20187;-84
2024/01/03 10:58:02;;;;;;;12.00;10.57;;;10.90;65.60;;;;;;5000367;28;20185;-85
2024/01/03 11:00:53;;;;;;;12.23;10.80;;;10.80;65.50;;;;;;5002490;28;20231;-85
2024/01/03 11:03:18;;;;;;;11.77;10.57;;;10.90;65.50;;;;;;5000279;28;20539;-85
2024/01/03 11:06:08;;;;;;;13.80;11.80;;;10.80;65.40;;;;;;5009956;28;20275;-84
2024/01/03 11:08:48;;;;;;;11.83;10.13;;;10.80;65.80;;;;;;4992851;28;20195;-84
2024/01/03 11:11:31;;;;;;;13.40;11.53;;;10.90;66.00;;;;;;5011722;28;20261;-85
2024/01/03 11:14:00;;;;;;;13.13;10.77;;;10.90;65.90;;;;;;5001036;28;20211;-84
2024/01/03 11:16:39;;;;;;;13.03;11.30;;;11.00;66.00;;;;;;5000275;28;20209;-84
2024/01/03 11:19:07;;;;;;;14.13;12.30;;;11.00;65.90;;;;;;5010917;28;20207;-84
2024/01/03 11:21:37;;;;;;;12.13;10.80;;;11.00;65.80;;;;;;4992309;28;20592;-85
2024/01/03 11:24:06;;;;;;;12.40;10.77;;;11.10;66.10;;;;;;5013999;28;20333;-84
2024/01/03 11:26:54;;;;;;;12.77;10.80;;;11.10;66.10;;;;;;5000196;28;20274;-85
2024/01/03 11:29:45;;;;;;;14.30;11.07;;;11.10;66.10;;;;;;4999403;28;20522;-84
2024/01/03 11:32:25;;;;;;;12.63;10.43;;;11.10;66.10;;;;;;5008872;28;20191;-85
2024/01/03 11:34:52;;;;;;;11.13;9.17;;;11.20;66.60;;;;;;4999759;28;20205;-85
2024/01/03 11:37:20;;;;;;;10.27;7.90;;;11.20;66.90;;;;;;5002630;28;20184;-85
2024/01/03 11:39:50;;;;;;;10.67;7.67;;;11.20;67.50;;;;;;4992596;28;20207;-85
2024/01/03 11:42:31;;;;;;;8.47;5.90;;;11.20;68.00;;;;;;5005874;28;20678;-85
2024/01/03 11:45:15;;;;;;;7.80;6.27;;;11.20;68.90;;;;;;4995666;28;20225;-85
2024/01/03 11:47:48;;;;;;;11.90;5.90;;;11.20;69.50;;;;;;4998805;28;20260;-85
2024/01/03 11:50:15;;;;;;;7.93;5.47;;;11.30;69.80;;;;;;5001185;28;20229;-85
2024/01/03 11:52:45;;;;;;;10.53;4.73;;;11.30;70.20;;;;;;4998959;28;20186;-84
2024/01/03 11:55:13;;;;;;;8.30;5.93;;;11.30;70.50;;;;;;4993279;28;20214;-85
2024/01/03 11:57:44;;;;;;;6.83;5.30;;;11.40;70.90;;;;;;5009920;28;20187;-85
2024/01/03 12:00:11;;;;;;;6.03;5.00;;;11.40;71.20;;;;;;5014862;28;20289;-84
2024/01/03 12:02:37;;;;;;;8.03;5.57;;;11.50;71.30;;;;;;4997698;28;20202;-84
2024/01/03 12:05:05;;;;;;;7.20;4.70;;;11.50;71.40;;;;;;5010299;28;20193;-85
2024/01/03 12:07:36;;;;;;;8.53;5.37;;;11.60;71.80;;;;;;5001747;28;20183;-85
2024/01/03 12:10:03;;;;;;;8.80;4.80;;;11.60;71.70;;;;;;5006363;28;20257;-84
2024/01/03 12:12:29;;;;;;;7.27;4.83;;;11.60;71.80;;;;;;5019440;28;20261;-85
2024/01/03 12:14:55;;;;;;;8.23;4.80;;;11.60;71.80;;;;;;4996233;28;20195;-85
2024/01/03 12:17:29;;;;;;;6.67;4.70;;;11.70;71.90;;;;;;5008594;28;20189;-85
2024/01/03 12:20:14;;;;;;;7.73;4.83;;;11.80;72.00;;;;;;5008966;28;20753;-85
2024/01/03 12:22:40;;;;;;;6.47;4.23;;;11.80;71.80;;;;;;4981562;28;20202;-84
2024/01/03 12:25:15;;;;;;;8.03;5.10;;;11.80;71.70;;;;;;5022548;28;20178;-84
2024/01/03 12:27:41;;;;;;;9.10;3.83;;;11.90;71.80;;;;;;4986964;28;20285;-85
2024/01/03 12:30:15;;;;;;;6.30;4.53;;;11.90;71.80;;;;;;4992074;28;20277;-84
2024/01/03 12:32:41;;;;;;;6.63;4.73;;;11.80;71.80;;;;;;5008655;28;20242;-85
2024/01/03 12:35:07;;;;;;;12.43;4.63;;;11.80;71.80;;;;;;5009060;28;20219;-85
2024/01/03 12:37:33;;;;;;;10.13;4.93;;;11.80;71.90;;;;;;5004107;28;20196;-85